sensor_id;sensor_type;location;lat;lon;timestamp;pressure;altitude;pressure_sealevel;temperature;humidity
20955;BME280;10636;19.390;-99.256;2023-11-19T00:00:27;77885.66;;;25.60;22.74
20955;BME280;10636;19.390;-99.256;2023-11-19T00:02:56;77889.03;;;25.60;22.75
20955;BME280;10636;19.390;-99.256;2023-11-19T00:05:26;77880.97;;;25.60;22.96
20955;BME280;10636;19.390;-99.256;2023-11-19T00:07:55;77882.28;;;25.59;23.01
20955;BME280;10636;19.390;-99.256;2023-11-19T00:10:24;77893.03;;;25.59;22.73
20955;BME280;10636;19.390;-99.256;2023-11-19T00:12:53;77895.03;;;25.59;22.94
20955;BME280;10636;19.390;-99.256;2023-11-19T00:15:23;77896.34;;;25.58;23.04
20955;BME280;10636;19.390;-99.256;2023-11-19T00:17:52;77901.00;;;25.57;23.01
20955;BME280;10636;19.390;-99.256;2023-11-19T00:20:20;77892.13;;;25.52;22.88
20955;BME280;10636;19.390;-99.256;2023-11-19T00:22:51;77898.25;;;25.55;23.08
20955;BME280;10636;19.390;-99.256;2023-11-19T00:25:21;77901.63;;;25.55;23.07
20955;BME280;10636;19.390;-99.256;2023-11-19T00:27:51;77913.00;;;25.54;22.90
20955;BME280;10636;19.390;-99.256;2023-11-19T00:30:20;77910.31;;;25.54;22.85
20955;BME280;10636;19.390;-99.256;2023-11-19T00:32:48;77906.31;;;25.55;22.90
20955;BME280;10636;19.390;-99.256;2023-11-19T00:35:17;77912.31;;;25.53;23.02
20955;BME280;10636;19.390;-99.256;2023-11-19T00:37:46;77915.00;;;25.53;23.06
20955;BME280;10636;19.390;-99.256;2023-11-19T00:40:16;77910.22;;;25.52;23.25
20955;BME280;10636;19.390;-99.256;2023-11-19T00:42:48;77919.59;;;25.51;23.32
20955;BME280;10636;19.390;-99.256;2023-11-19T00:45:16;77931.66;;;25.50;22.89
20955;BME280;10636;19.390;-99.256;2023-11-19T00:47:45;77933.63;;;25.49;23.27
20955;BME280;10636;19.390;-99.256;2023-11-19T00:50:13;77937.63;;;25.48;23.26
20955;BME280;10636;19.390;-99.256;2023-11-19T00:52:42;77947.00;;;25.47;23.52
20955;BME280;10636;19.390;-99.256;2023-11-19T00:55:09;77939.56;;;25.46;23.36
20955;BME280;10636;19.390;-99.256;2023-11-19T00:57:39;77946.31;;;25.47;23.22
20955;BME280;10636;19.390;-99.256;2023-11-19T01:00:09;77952.91;;;25.44;23.45
20955;BME280;10636;19.390;-99.256;2023-11-19T01:02:44;77946.09;;;25.41;23.17
20955;BME280;10636;19.390;-99.256;2023-11-19T01:05:14;77951.16;;;25.33;23.39
20955;BME280;10636;19.390;-99.256;2023-11-19T01:07:42;77964.88;;;25.41;23.36
20955;BME280;10636;19.390;-99.256;2023-11-19T01:10:11;77960.81;;;25.40;22.92
20955;BME280;10636;19.390;-99.256;2023-11-19T01:12:41;77973.56;;;25.39;22.87
20955;BME280;10636;19.390;-99.256;2023-11-19T01:15:10;77972.88;;;25.39;23.02
20955;BME280;10636;19.390;-99.256;2023-11-19T01:17:39;77968.59;;;25.32;22.73
20955;BME280;10636;19.390;-99.256;2023-11-19T01:20:08;77979.44;;;25.36;22.51
20955;BME280;10636;19.390;-99.256;2023-11-19T01:22:39;77992.13;;;25.33;23.07
20955;BME280;10636;19.390;-99.256;2023-11-19T01:25:08;77995.44;;;25.32;22.86
20955;BME280;10636;19.390;-99.256;2023-11-19T01:27:36;77986.06;;;25.33;22.60
20955;BME280;10636;19.390;-99.256;2023-11-19T01:30:08;77994.13;;;25.33;23.04
20955;BME280;10636;19.390;-99.256;2023-11-19T01:32:41;78002.09;;;25.30;22.76
20955;BME280;10636;19.390;-99.256;2023-11-19T01:35:10;78007.38;;;25.28;22.65
20955;BME280;10636;19.390;-99.256;2023-11-19T01:37:38;78015.44;;;25.28;22.61
20955;BME280;10636;19.390;-99.256;2023-11-19T01:40:08;78014.75;;;25.28;22.87
20955;BME280;10636;19.390;-99.256;2023-11-19T01:42:37;78014.69;;;25.26;22.73
20955;BME280;10636;19.390;-99.256;2023-11-19T01:45:09;78017.28;;;25.24;22.46
20955;BME280;10636;19.390;-99.256;2023-11-19T01:47:38;78019.34;;;25.25;22.44
20955;BME280;10636;19.390;-99.256;2023-11-19T01:50:08;78020.75;;;25.26;23.04
20955;BME280;10636;19.390;-99.256;2023-11-19T01:52:38;78008.16;;;25.13;23.22
20955;BME280;10636;19.390;-99.256;2023-11-19T01:55:08;78030.16;;;25.27;23.19
20955;BME280;10636;19.390;-99.256;2023-11-19T01:57:38;78027.41;;;25.25;23.14
20955;BME280;10636;19.390;-99.256;2023-11-19T02:00:11;78027.31;;;25.23;23.22
20955;BME280;10636;19.390;-99.256;2023-11-19T02:02:40;78030.00;;;25.23;23.17
20955;BME280;10636;19.390;-99.256;2023-11-19T02:05:09;78037.38;;;25.23;23.34
20955;BME280;10636;19.390;-99.256;2023-11-19T02:07:39;78044.75;;;25.22;22.89
20955;BME280;10636;19.390;-99.256;2023-11-19T02:10:08;78044.75;;;25.22;22.87
20955;BME280;10636;19.390;-99.256;2023-11-19T02:12:41;78041.22;;;25.18;23.14
20955;BME280;10636;19.390;-99.256;2023-11-19T02:15:14;78053.31;;;25.19;23.22
20955;BME280;10636;19.390;-99.256;2023-11-19T02:17:45;78052.56;;;25.16;22.46
20955;BME280;10636;19.390;-99.256;2023-11-19T02:20:14;78059.38;;;25.19;22.52
20955;BME280;10636;19.390;-99.256;2023-11-19T02:22:43;78058.00;;;25.18;23.11
20955;BME280;10636;19.390;-99.256;2023-11-19T02:25:23;78075.41;;;25.17;23.32
20955;BME280;10636;19.390;-99.256;2023-11-19T02:27:58;78074.72;;;25.17;23.18
20955;BME280;10636;19.390;-99.256;2023-11-19T02:30:27;78070.66;;;25.16;23.23
20955;BME280;10636;19.390;-99.256;2023-11-19T02:32:56;78078.72;;;25.16;23.50
20955;BME280;10636;19.390;-99.256;2023-11-19T02:35:25;78082.00;;;25.14;23.15
20955;BME280;10636;19.390;-99.256;2023-11-19T02:37:55;78084.69;;;25.14;23.48
20955;BME280;10636;19.390;-99.256;2023-11-19T02:40:23;78079.94;;;25.13;23.41
20955;BME280;10636;19.390;-99.256;2023-11-19T02:42:52;78086.59;;;25.12;23.56
20955;BME280;10636;19.390;-99.256;2023-11-19T02:45:23;78096.66;;;25.11;23.38
20955;BME280;10636;19.390;-99.256;2023-11-19T02:47:52;78097.97;;;25.10;24.06
20955;BME280;10636;19.390;-99.256;2023-11-19T02:50:21;78097.84;;;25.08;23.64
20955;BME280;10636;19.390;-99.256;2023-11-19T02:52:54;78096.47;;;25.07;23.72
20955;BME280;10636;19.390;-99.256;2023-11-19T02:55:23;78099.75;;;25.06;23.92
20955;BME280;10636;19.390;-99.256;2023-11-19T02:57:54;78104.44;;;25.05;23.79
20955;BME280;10636;19.390;-99.256;2023-11-19T03:00:27;78100.97;;;25.02;24.02
20955;BME280;10636;19.390;-99.256;2023-11-19T03:03:02;78109.03;;;25.02;23.48
20955;BME280;10636;19.390;-99.256;2023-11-19T03:05:51;78103.59;;;25.00;24.13
20955;BME280;10636;19.390;-99.256;2023-11-19T03:08:20;78106.28;;;25.00;24.08
20955;BME280;10636;19.390;-99.256;2023-11-19T03:10:48;78100.13;;;24.98;23.96
20955;BME280;10636;19.390;-99.256;2023-11-19T03:13:17;78104.78;;;24.97;23.88
20955;BME280;10636;19.390;-99.256;2023-11-19T03:15:47;78109.47;;;24.97;23.69
20955;BME280;10636;19.390;-99.256;2023-11-19T03:18:16;78104.09;;;24.97;24.14
20955;BME280;10636;19.390;-99.256;2023-11-19T03:20:44;78112.22;;;24.99;23.68
20955;BME280;10636;19.390;-99.256;2023-11-19T03:23:14;78112.22;;;24.99;24.19
20955;BME280;10636;19.390;-99.256;2023-11-19T03:25:48;78120.19;;;24.97;23.87
20955;BME280;10636;19.390;-99.256;2023-11-19T03:28:17;78116.16;;;24.96;23.76
20955;BME280;10636;19.390;-99.256;2023-11-19T03:30:47;78122.81;;;24.95;24.35
20955;BME280;10636;19.390;-99.256;2023-11-19T03:33:15;78117.44;;;24.95;24.06
20955;BME280;10636;19.390;-99.256;2023-11-19T03:35:44;78118.81;;;24.96;24.33
20955;BME280;10636;19.390;-99.256;2023-11-19T03:38:13;78118.22;;;24.97;24.18
20955;BME280;10636;19.390;-99.256;2023-11-19T03:40:43;78117.53;;;24.97;24.38
20955;BME280;10636;19.390;-99.256;2023-11-19T03:43:13;78120.19;;;24.97;24.98
20955;BME280;10636;19.390;-99.256;2023-11-19T03:45:42;78118.81;;;24.96;24.80
20955;BME280;10636;19.390;-99.256;2023-11-19T03:48:12;78114.84;;;24.97;24.99
20955;BME280;10636;19.390;-99.256;2023-11-19T03:50:42;78112.09;;;24.95;24.88
20955;BME280;10636;19.390;-99.256;2023-11-19T03:53:12;78114.75;;;24.95;25.40
20955;BME280;10636;19.390;-99.256;2023-11-19T03:55:44;78107.41;;;24.95;24.77
20955;BME280;10636;19.390;-99.256;2023-11-19T03:58:13;78116.75;;;24.94;25.05
20955;BME280;10636;19.390;-99.256;2023-11-19T04:00:44;78122.13;;;24.94;24.88
20955;BME280;10636;19.390;-99.256;2023-11-19T04:03:15;78111.91;;;24.91;25.38
20955;BME280;10636;19.390;-99.256;2023-11-19T04:05:45;78117.28;;;24.91;25.01
20955;BME280;10636;19.390;-99.256;2023-11-19T04:08:14;78096.03;;;24.79;24.64
20955;BME280;10636;19.390;-99.256;2023-11-19T04:10:42;78115.91;;;24.90;24.59
20955;BME280;10636;19.390;-99.256;2023-11-19T04:13:11;78113.22;;;24.90;24.60
20955;BME280;10636;19.390;-99.256;2023-11-19T04:15:39;78107.06;;;24.87;25.00
20955;BME280;10636;19.390;-99.256;2023-11-19T04:18:09;78099.16;;;24.73;24.74
20955;BME280;10636;19.390;-99.256;2023-11-19T04:20:39;78118.41;;;24.86;25.11
20955;BME280;10636;19.390;-99.256;2023-11-19T04:23:08;78126.47;;;24.86;25.52
20955;BME280;10636;19.390;-99.256;2023-11-19T04:25:37;78121.78;;;24.86;25.17
20955;BME280;10636;19.390;-99.256;2023-11-19T04:28:06;78115.72;;;24.86;25.58
20955;BME280;10636;19.390;-99.256;2023-11-19T04:30:37;78120.41;;;24.85;26.14
20955;BME280;10636;19.390;-99.256;2023-11-19T04:33:06;78120.41;;;24.85;25.84
20955;BME280;10636;19.390;-99.256;2023-11-19T04:35:34;78121.72;;;24.84;26.10
20955;BME280;10636;19.390;-99.256;2023-11-19T04:38:04;78121.72;;;24.84;26.17
20955;BME280;10636;19.390;-99.256;2023-11-19T04:40:33;78118.34;;;24.84;25.94
20955;BME280;10636;19.390;-99.256;2023-11-19T04:43:01;78111.50;;;24.81;26.27
20955;BME280;10636;19.390;-99.256;2023-11-19T04:45:30;78120.25;;;24.81;26.28
20955;BME280;10636;19.390;-99.256;2023-11-19T04:47:59;78119.56;;;24.81;26.16
20955;BME280;10636;19.390;-99.256;2023-11-19T04:50:27;78118.19;;;24.80;26.81
20955;BME280;10636;19.390;-99.256;2023-11-19T04:52:56;78122.16;;;24.78;25.89
20955;BME280;10636;19.390;-99.256;2023-11-19T04:55:27;78119.38;;;24.76;26.72
20955;BME280;10636;19.390;-99.256;2023-11-19T04:57:56;78116.00;;;24.76;26.62
20955;BME280;10636;19.390;-99.256;2023-11-19T05:00:24;78119.31;;;24.74;26.43
20955;BME280;10636;19.390;-99.256;2023-11-19T05:02:53;78122.00;;;24.74;26.13
20955;BME280;10636;19.390;-99.256;2023-11-19T05:05:22;78130.63;;;24.73;26.51
20955;BME280;10636;19.390;-99.256;2023-11-19T05:07:50;78124.56;;;24.72;26.41
20955;BME280;10636;19.390;-99.256;2023-11-19T05:10:21;78119.22;;;24.72;26.07
20955;BME280;10636;19.390;-99.256;2023-11-19T05:12:52;78123.19;;;24.71;26.05
20955;BME280;10636;19.390;-99.256;2023-11-19T05:15:22;78128.38;;;24.67;26.16
20955;BME280;10636;19.390;-99.256;2023-11-19T05:17:54;78120.28;;;24.65;26.69
20955;BME280;10636;19.390;-99.256;2023-11-19T05:20:25;78125.56;;;24.63;26.00
20955;BME280;10636;19.390;-99.256;2023-11-19T05:22:54;78113.19;;;24.56;26.04
20955;BME280;10636;19.390;-99.256;2023-11-19T05:25:22;78129.44;;;24.60;26.54
20955;BME280;10636;19.390;-99.256;2023-11-19T05:27:53;78125.28;;;24.57;26.53
20955;BME280;10636;19.390;-99.256;2023-11-19T05:30:21;78127.28;;;24.57;26.56
20955;BME280;10636;19.390;-99.256;2023-11-19T05:32:50;78113.81;;;24.55;26.60
20955;BME280;10636;19.390;-99.256;2023-11-19T05:35:18;78121.16;;;24.54;26.68
20955;BME280;10636;19.390;-99.256;2023-11-19T05:37:47;78110.44;;;24.54;26.83
20955;BME280;10636;19.390;-99.256;2023-11-19T05:40:16;78114.25;;;24.49;26.75
20955;BME280;10636;19.390;-99.256;2023-11-19T05:42:47;78115.63;;;24.50;26.84
20955;BME280;10636;19.390;-99.256;2023-11-19T05:45:17;78112.88;;;24.48;26.67
20955;BME280;10636;19.390;-99.256;2023-11-19T05:47:48;78104.22;;;24.49;26.77
20955;BME280;10636;19.390;-99.256;2023-11-19T05:50:18;78101.44;;;24.47;26.30
20955;BME280;10636;19.390;-99.256;2023-11-19T05:52:46;78108.81;;;24.47;26.52
20955;BME280;10636;19.390;-99.256;2023-11-19T05:55:15;78101.28;;;24.43;26.72
20955;BME280;10636;19.390;-99.256;2023-11-19T05:57:46;78105.25;;;24.42;26.50
20955;BME280;10636;19.390;-99.256;2023-11-19T06:00:16;78109.94;;;24.42;26.57
20955;BME280;10636;19.390;-99.256;2023-11-19T06:02:45;78108.63;;;24.43;27.10
20955;BME280;10636;19.390;-99.256;2023-11-19T06:05:14;78111.81;;;24.39;27.04
20955;BME280;10636;19.390;-99.256;2023-11-19T06:07:44;78108.38;;;24.37;27.23
20955;BME280;10636;19.390;-99.256;2023-11-19T06:10:15;78110.94;;;24.35;26.65
20955;BME280;10636;19.390;-99.256;2023-11-19T06:12:48;78101.28;;;24.27;26.51
20955;BME280;10636;19.390;-99.256;2023-11-19T06:15:24;78109.47;;;24.32;26.92
20955;BME280;10636;19.390;-99.256;2023-11-19T06:17:52;78102.13;;;24.32;26.56
20955;BME280;10636;19.390;-99.256;2023-11-19T06:20:21;78102.72;;;24.31;26.53
20955;BME280;10636;19.390;-99.256;2023-11-19T06:22:49;78101.97;;;24.28;27.18
20955;BME280;10636;19.390;-99.256;2023-11-19T06:25:21;78099.97;;;24.29;26.69
20955;BME280;10636;19.390;-99.256;2023-11-19T06:27:50;78095.22;;;24.27;26.56
20955;BME280;10636;19.390;-99.256;2023-11-19T06:30:19;78091.06;;;24.24;26.88
20955;BME280;10636;19.390;-99.256;2023-11-19T06:32:49;78087.69;;;24.23;26.96
20955;BME280;10636;19.390;-99.256;2023-11-19T06:35:17;78089.69;;;24.23;26.70
20955;BME280;10636;19.390;-99.256;2023-11-19T06:37:46;78090.31;;;24.21;27.09
20955;BME280;10636;19.390;-99.256;2023-11-19T06:40:15;78090.19;;;24.19;26.50
20955;BME280;10636;19.390;-99.256;2023-11-19T06:42:43;78088.13;;;24.18;26.55
20955;BME280;10636;19.390;-99.256;2023-11-19T06:45:12;78094.00;;;24.14;26.61
20955;BME280;10636;19.390;-99.256;2023-11-19T06:47:41;78088.66;;;24.14;26.55
20955;BME280;10636;19.390;-99.256;2023-11-19T06:50:11;78094.00;;;24.14;26.90
20955;BME280;10636;19.390;-99.256;2023-11-19T06:52:41;78089.25;;;24.13;26.60
20955;BME280;10636;19.390;-99.256;2023-11-19T06:55:12;78084.50;;;24.11;27.27
20955;BME280;10636;19.390;-99.256;2023-11-19T06:57:41;78088.50;;;24.10;26.79
20955;BME280;10636;19.390;-99.256;2023-11-19T07:00:10;78078.97;;;24.07;26.86
20955;BME280;10636;19.390;-99.256;2023-11-19T07:02:40;78072.94;;;24.07;27.33
20955;BME280;10636;19.390;-99.256;2023-11-19T07:05:13;78078.91;;;24.05;26.55
20955;BME280;10636;19.390;-99.256;2023-11-19T07:07:42;78077.50;;;24.04;27.30
20955;BME280;10636;19.390;-99.256;2023-11-19T07:10:12;78076.72;;;24.02;26.71
20955;BME280;10636;19.390;-99.256;2023-11-19T07:12:44;78065.84;;;23.97;27.38
20955;BME280;10636;19.390;-99.256;2023-11-19T07:15:13;78078.63;;;23.99;27.37
20955;BME280;10636;19.390;-99.256;2023-11-19T07:17:43;78077.25;;;23.98;26.89
20955;BME280;10636;19.390;-99.256;2023-11-19T07:20:14;78077.16;;;23.96;27.00
20955;BME280;10636;19.390;-99.256;2023-11-19T07:22:44;78081.03;;;23.93;27.29
20955;BME280;10636;19.390;-99.256;2023-11-19T07:25:16;78078.91;;;23.89;26.93
20955;BME280;10636;19.390;-99.256;2023-11-19T07:27:48;78080.91;;;23.89;26.62
20955;BME280;10636;19.390;-99.256;2023-11-19T07:30:18;78078.13;;;23.87;26.99
20955;BME280;10636;19.390;-99.256;2023-11-19T07:32:47;78082.09;;;23.86;26.81
20955;BME280;10636;19.390;-99.256;2023-11-19T07:35:19;78077.44;;;23.86;26.94
20955;BME280;10636;19.390;-99.256;2023-11-19T07:37:47;78073.97;;;23.84;26.78
20955;BME280;10636;19.390;-99.256;2023-11-19T07:40:16;78072.56;;;23.83;26.61
20955;BME280;10636;19.390;-99.256;2023-11-19T07:42:46;78071.19;;;23.82;27.33
20955;BME280;10636;19.390;-99.256;2023-11-19T07:45:15;78072.56;;;23.83;27.56
20955;BME280;10636;19.390;-99.256;2023-11-19T07:47:44;78071.19;;;23.82;26.82
20955;BME280;10636;19.390;-99.256;2023-11-19T07:50:12;78072.41;;;23.79;26.83
20955;BME280;10636;19.390;-99.256;2023-11-19T07:52:44;78066.38;;;23.78;27.28
20955;BME280;10636;19.390;-99.256;2023-11-19T07:55:13;78066.97;;;23.77;26.80
20955;BME280;10636;19.390;-99.256;2023-11-19T07:57:42;78062.91;;;23.76;26.91
20955;BME280;10636;19.390;-99.256;2023-11-19T08:00:12;78054.63;;;23.69;27.12
20955;BME280;10636;19.390;-99.256;2023-11-19T08:02:41;78060.75;;;23.72;26.88
20955;BME280;10636;19.390;-99.256;2023-11-19T08:05:10;78054.81;;;23.73;27.68
20955;BME280;10636;19.390;-99.256;2023-11-19T08:07:39;78060.06;;;23.71;27.64
20955;BME280;10636;19.390;-99.256;2023-11-19T08:10:09;78058.59;;;23.68;27.64
20955;BME280;10636;19.390;-99.256;2023-11-19T08:12:38;78049.09;;;23.65;26.69
20955;BME280;10636;19.390;-99.256;2023-11-19T08:15:07;78053.66;;;23.63;27.37
20955;BME280;10636;19.390;-99.256;2023-11-19T08:17:36;78051.69;;;23.63;27.26
20955;BME280;10636;19.390;-99.256;2023-11-19T08:20:05;78047.59;;;23.62;27.55
20955;BME280;10636;19.390;-99.256;2023-11-19T08:22:36;78041.53;;;23.62;26.91
20955;BME280;10636;19.390;-99.256;2023-11-19T08:25:05;78051.56;;;23.61;26.95
20955;BME280;10636;19.390;-99.256;2023-11-19T08:27:36;78050.28;;;23.62;27.78
20955;BME280;10636;19.390;-99.256;2023-11-19T08:30:05;78044.81;;;23.60;27.65
20955;BME280;10636;19.390;-99.256;2023-11-19T08:32:34;78046.13;;;23.59;26.93
20955;BME280;10636;19.390;-99.256;2023-11-19T08:35:03;78041.97;;;23.56;27.28
20955;BME280;10636;19.390;-99.256;2023-11-19T08:37:32;78045.94;;;23.55;27.04
20955;BME280;10636;19.390;-99.256;2023-11-19T08:40:03;78040.59;;;23.55;26.93
20955;BME280;10636;19.390;-99.256;2023-11-19T08:42:35;78036.53;;;23.54;27.35
20955;BME280;10636;19.390;-99.256;2023-11-19T08:45:06;78035.66;;;23.49;27.24
20955;BME280;10636;19.390;-99.256;2023-11-19T08:47:36;78039.72;;;23.51;27.71
20955;BME280;10636;19.390;-99.256;2023-11-19T08:50:07;78036.28;;;23.48;27.56
20955;BME280;10636;19.390;-99.256;2023-11-19T08:52:36;78024.88;;;23.47;27.06
20955;BME280;10636;19.390;-99.256;2023-11-19T08:55:05;78028.13;;;23.46;27.73
20955;BME280;10636;19.390;-99.256;2023-11-19T08:57:40;78026.75;;;23.45;27.33
20955;BME280;10636;19.390;-99.256;2023-11-19T09:00:10;78024.69;;;23.43;27.62
20955;BME280;10636;19.390;-99.256;2023-11-19T09:02:40;78024.00;;;23.43;27.39
20955;BME280;10636;19.390;-99.256;2023-11-19T09:05:09;78022.63;;;23.42;27.11
20955;BME280;10636;19.390;-99.256;2023-11-19T09:07:39;78014.59;;;23.42;26.99
20955;BME280;10636;19.390;-99.256;2023-11-19T09:10:08;78017.28;;;23.42;27.51
20955;BME280;10636;19.390;-99.256;2023-11-19T09:12:39;78013.13;;;23.39;27.26
20955;BME280;10636;19.390;-99.256;2023-11-19T09:15:08;78017.09;;;23.38;27.89
20955;BME280;10636;19.390;-99.256;2023-11-19T09:17:38;78014.31;;;23.36;27.56
20955;BME280;10636;19.390;-99.256;2023-11-19T09:20:08;78014.25;;;23.34;27.34
20955;BME280;10636;19.390;-99.256;2023-11-19T09:22:41;78006.91;;;23.34;27.86
20955;BME280;10636;19.390;-99.256;2023-11-19T09:25:09;78004.16;;;23.32;27.92
20955;BME280;10636;19.390;-99.256;2023-11-19T09:27:40;78005.53;;;23.33;27.16
20955;BME280;10636;19.390;-99.256;2023-11-19T09:30:09;78012.25;;;23.34;27.80
20955;BME280;10636;19.390;-99.256;2023-11-19T09:32:38;78002.16;;;23.33;27.79
20955;BME280;10636;19.390;-99.256;2023-11-19T09:35:07;78006.91;;;23.34;27.49
20955;BME280;10636;19.390;-99.256;2023-11-19T09:37:37;78004.84;;;23.33;27.85
20955;BME280;10636;19.390;-99.256;2023-11-19T09:40:07;78004.75;;;23.31;28.21
20955;BME280;10636;19.390;-99.256;2023-11-19T09:42:42;78002.09;;;23.31;27.46
20955;BME280;10636;19.390;-99.256;2023-11-19T09:45:13;77998.63;;;23.28;28.11
20955;BME280;10636;19.390;-99.256;2023-11-19T09:47:44;78003.28;;;23.28;27.57
20955;BME280;10636;19.390;-99.256;2023-11-19T09:50:16;78001.91;;;23.27;27.66
20955;BME280;10636;19.390;-99.256;2023-11-19T09:52:45;78005.88;;;23.26;27.58
20955;BME280;10636;19.390;-99.256;2023-11-19T09:55:14;77982.28;;;23.06;28.01
20955;BME280;10636;19.390;-99.256;2023-11-19T09:57:47;78012.41;;;23.22;28.30
20955;BME280;10636;19.390;-99.256;2023-11-19T10:00:19;78008.44;;;23.23;27.96
20955;BME280;10636;19.390;-99.256;2023-11-19T10:02:50;78009.06;;;23.22;27.95
20955;BME280;10636;19.390;-99.256;2023-11-19T10:05:20;78015.72;;;23.21;27.95
20955;BME280;10636;19.390;-99.256;2023-11-19T10:07:50;78008.25;;;23.19;27.89
20955;BME280;10636;19.390;-99.256;2023-11-19T10:10:19;78008.09;;;23.15;27.69
20955;BME280;10636;19.390;-99.256;2023-11-19T10:12:51;78010.78;;;23.15;28.28
20955;BME280;10636;19.390;-99.256;2023-11-19T10:15:21;78010.69;;;23.13;28.02
20955;BME280;10636;19.390;-99.256;2023-11-19T10:17:54;78009.31;;;23.12;27.61
20955;BME280;10636;19.390;-99.256;2023-11-19T10:20:23;78017.94;;;23.11;27.83
20955;BME280;10636;19.390;-99.256;2023-11-19T10:22:53;78009.22;;;23.10;27.69
20955;BME280;10636;19.390;-99.256;2023-11-19T10:25:23;78004.44;;;23.09;28.38
20955;BME280;10636;19.390;-99.256;2023-11-19T10:27:54;78007.72;;;23.07;28.45
20955;BME280;10636;19.390;-99.256;2023-11-19T10:30:24;78014.38;;;23.06;28.43
20955;BME280;10636;19.390;-99.256;2023-11-19T10:33:11;78017.13;;;23.08;28.03
20955;BME280;10636;19.390;-99.256;2023-11-19T10:35:53;78014.38;;;23.06;28.50
20955;BME280;10636;19.390;-99.256;2023-11-19T10:38:23;78014.28;;;23.04;27.77
20955;BME280;10636;19.390;-99.256;2023-11-19T10:40:52;78018.25;;;23.03;28.54
20955;BME280;10636;19.390;-99.256;2023-11-19T10:43:23;78020.94;;;23.03;27.97
20955;BME280;10636;19.390;-99.256;2023-11-19T10:45:52;78023.59;;;23.03;28.20
20955;BME280;10636;19.390;-99.256;2023-11-19T10:48:20;78022.22;;;23.02;28.52
20955;BME280;10636;19.390;-99.256;2023-11-19T10:50:53;78028.19;;;23.01;28.80
20955;BME280;10636;19.390;-99.256;2023-11-19T10:53:23;78031.34;;;22.97;28.49
20955;BME280;10636;19.390;-99.256;2023-11-19T10:55:55;78041.97;;;22.95;28.83
20955;BME280;10636;19.390;-99.256;2023-11-19T10:58:29;78037.22;;;22.93;28.23
20955;BME280;10636;19.390;-99.256;2023-11-19T11:01:02;78039.19;;;22.93;27.88
20955;BME280;10636;19.390;-99.256;2023-11-19T11:03:36;78040.41;;;22.90;28.21
20955;BME280;10636;19.390;-99.256;2023-11-19T11:06:08;78038.91;;;22.87;28.19
20955;BME280;10636;19.390;-99.256;2023-11-19T11:08:37;78047.59;;;22.87;28.76
20955;BME280;10636;19.390;-99.256;2023-11-19T11:11:08;78048.22;;;22.86;28.25
20955;BME280;10636;19.390;-99.256;2023-11-19T11:13:42;78054.75;;;22.83;28.52
20955;BME280;10636;19.390;-99.256;2023-11-19T11:16:11;78050.00;;;22.81;28.34
20955;BME280;10636;19.390;-99.256;2023-11-19T11:18:40;78055.34;;;22.81;28.47
20955;BME280;10636;19.390;-99.256;2023-11-19T11:21:11;78050.63;;;22.80;29.11
20955;BME280;10636;19.390;-99.256;2023-11-19T11:27:09;78066.47;;;22.76;28.74
20955;BME280;10636;19.390;-99.256;2023-11-19T11:29:47;78062.50;;;22.77;29.10
20955;BME280;10636;19.390;-99.256;2023-11-19T11:32:28;78058.38;;;22.74;28.42
20955;BME280;10636;19.390;-99.256;2023-11-19T11:35:12;78063.72;;;22.74;28.83
20955;BME280;10636;19.390;-99.256;2023-11-19T11:37:47;78066.97;;;22.72;29.04
20955;BME280;10636;19.390;-99.256;2023-11-19T11:40:18;78068.94;;;22.71;28.71
20955;BME280;10636;19.390;-99.256;2023-11-19T11:42:50;78064.81;;;22.68;28.94
20955;BME280;10636;19.390;-99.256;2023-11-19T11:45:35;78070.16;;;22.68;29.52
20955;BME280;10636;19.390;-99.256;2023-11-19T11:48:10;78058.47;;;22.62;28.91
20955;BME280;10636;19.390;-99.256;2023-11-19T11:50:49;78066.09;;;22.67;28.71
20955;BME280;10636;19.390;-99.256;2023-11-19T11:53:18;78073.81;;;22.61;29.10
20955;BME280;10636;19.390;-99.256;2023-11-19T11:55:58;78086.09;;;22.66;29.58
20955;BME280;10636;19.390;-99.256;2023-11-19T11:58:34;78080.66;;;22.64;29.12
20955;BME280;10636;19.390;-99.256;2023-11-19T12:01:05;78092.66;;;22.63;28.96
20955;BME280;10636;19.390;-99.256;2023-11-19T12:03:34;78098.69;;;22.64;29.21
20955;BME280;10636;19.390;-99.256;2023-11-19T12:06:03;78104.53;;;22.60;29.01
20955;BME280;10636;19.390;-99.256;2023-11-19T12:08:35;78096.50;;;22.60;29.37
20955;BME280;10636;19.390;-99.256;2023-11-19T12:11:04;78101.16;;;22.60;29.02
20955;BME280;10636;19.390;-99.256;2023-11-19T12:13:47;78095.03;;;22.57;29.08
20955;BME280;10636;19.390;-99.256;2023-11-19T12:16:23;78096.31;;;22.56;29.39
20955;BME280;10636;19.390;-99.256;2023-11-19T12:18:54;78093.63;;;22.56;29.71
20955;BME280;10636;19.390;-99.256;2023-11-19T12:21:30;78098.97;;;22.56;29.30
20955;BME280;10636;19.390;-99.256;2023-11-19T12:23:59;78103.53;;;22.54;29.27
20955;BME280;10636;19.390;-99.256;2023-11-19T12:26:38;78097.59;;;22.55;30.09
20955;BME280;10636;19.390;-99.256;2023-11-19T12:29:06;78104.94;;;22.55;29.33
20955;BME280;10636;19.390;-99.256;2023-11-19T12:31:37;78096.91;;;22.55;29.25
20955;BME280;10636;19.390;-99.256;2023-11-19T12:34:09;78107.59;;;22.55;29.76
20955;BME280;10636;19.390;-99.256;2023-11-19T12:36:41;78106.13;;;22.52;29.85
20955;BME280;10636;19.390;-99.256;2023-11-19T12:39:10;78107.41;;;22.51;29.46
20955;BME280;10636;19.390;-99.256;2023-11-19T12:41:51;78109.31;;;22.48;29.94
20955;BME280;10636;19.390;-99.256;2023-11-19T12:44:21;78099.91;;;22.47;29.40
20955;BME280;10636;19.390;-99.256;2023-11-19T12:47:08;78109.19;;;22.46;29.76
20955;BME280;10636;19.390;-99.256;2023-11-19T12:49:37;78109.78;;;22.44;30.21
20955;BME280;10636;19.390;-99.256;2023-11-19T12:52:12;78117.19;;;22.46;29.79
20955;BME280;10636;19.390;-99.256;2023-11-19T12:54:41;78115.81;;;22.45;29.40
20955;BME280;10636;19.390;-99.256;2023-11-19T12:57:09;78111.84;;;22.46;29.40
20955;BME280;10636;19.390;-99.256;2023-11-19T12:59:38;78121.16;;;22.45;30.34